sensor_id;sensor_type;location;lat;lon;timestamp;pressure;altitude;pressure_sealevel;temperature
64960;BMP180;51487;52.266;10.542;2023-07-29T00:00:56;99871.00;;;19.50
64960;BMP180;51487;52.266;10.542;2023-07-29T00:03:22;99863.00;;;19.50
64960;BMP180;51487;52.266;10.542;2023-07-29T00:05:48;99858.00;;;19.50
64960;BMP180;51487;52.266;10.542;2023-07-29T00:08:13;99862.00;;;19.50
64960;BMP180;51487;52.266;10.542;2023-07-29T00:10:39;99868.00;;;19.50
64960;BMP180;51487;52.266;10.542;2023-07-29T00:13:05;99867.00;;;19.50
64960;BMP180;51487;52.266;10.542;2023-07-29T00:15:32;99862.00;;;19.50
64960;BMP180;51487;52.266;10.542;2023-07-29T00:17:58;99858.00;;;19.60
64960;BMP180;51487;52.266;10.542;2023-07-29T00:20:23;99865.00;;;19.60
64960;BMP180;51487;52.266;10.542;2023-07-29T00:22:49;99868.00;;;19.80
64960;BMP180;51487;52.266;10.542;2023-07-29T00:25:17;99862.00;;;19.70
64960;BMP180;51487;52.266;10.542;2023-07-29T00:27:43;99863.00;;;19.50
64960;BMP180;51487;52.266;10.542;2023-07-29T00:30:08;99861.00;;;19.40
64960;BMP180;51487;52.266;10.542;2023-07-29T00:32:35;99863.00;;;19.40
64960;BMP180;51487;52.266;10.542;2023-07-29T00:35:01;99860.00;;;19.40
64960;BMP180;51487;52.266;10.542;2023-07-29T00:37:28;99861.00;;;19.40
64960;BMP180;51487;52.266;10.542;2023-07-29T00:39:53;99862.00;;;19.30
64960;BMP180;51487;52.266;10.542;2023-07-29T00:42:19;99858.00;;;19.40
64960;BMP180;51487;52.266;10.542;2023-07-29T00:44:45;99860.00;;;19.60
64960;BMP180;51487;52.266;10.542;2023-07-29T00:47:11;99861.00;;;19.60
64960;BMP180;51487;52.266;10.542;2023-07-29T00:49:40;99864.00;;;19.60
64960;BMP180;51487;52.266;10.542;2023-07-29T00:52:06;99859.00;;;19.50
64960;BMP180;51487;52.266;10.542;2023-07-29T00:54:32;99863.00;;;19.40
64960;BMP180;51487;52.266;10.542;2023-07-29T00:56:57;99855.00;;;19.40
64960;BMP180;51487;52.266;10.542;2023-07-29T00:59:23;99865.00;;;19.50
64960;BMP180;51487;52.266;10.542;2023-07-29T01:01:49;99860.00;;;19.60
64960;BMP180;51487;52.266;10.542;2023-07-29T01:04:15;99865.00;;;19.70
64960;BMP180;51487;52.266;10.542;2023-07-29T01:10:00;99871.00;;;19.70
64960;BMP180;51487;52.266;10.542;2023-07-29T01:12:54;99869.00;;;19.50
64960;BMP180;51487;52.266;10.542;2023-07-29T01:15:58;99857.00;;;19.30
64960;BMP180;51487;52.266;10.542;2023-07-29T01:18:31;99863.00;;;19.30
64960;BMP180;51487;52.266;10.542;2023-07-29T01:21:03;99859.00;;;19.30
64960;BMP180;51487;52.266;10.542;2023-07-29T01:23:34;99854.00;;;19.20
64960;BMP180;51487;52.266;10.542;2023-07-29T01:26:01;99853.00;;;19.20
64960;BMP180;51487;52.266;10.542;2023-07-29T01:28:27;99848.00;;;19.30
64960;BMP180;51487;52.266;10.542;2023-07-29T01:31:08;99851.00;;;19.30
64960;BMP180;51487;52.266;10.542;2023-07-29T01:36:53;99845.00;;;19.30
64960;BMP180;51487;52.266;10.542;2023-07-29T01:39:23;99839.00;;;19.20
64960;BMP180;51487;52.266;10.542;2023-07-29T01:41:51;99831.00;;;19.30
64960;BMP180;51487;52.266;10.542;2023-07-29T01:44:18;99829.00;;;19.30
64960;BMP180;51487;52.266;10.542;2023-07-29T01:46:44;99829.00;;;19.10
64960;BMP180;51487;52.266;10.542;2023-07-29T01:49:10;99831.00;;;19.20
64960;BMP180;51487;52.266;10.542;2023-07-29T01:51:35;99826.00;;;19.20
64960;BMP180;51487;52.266;10.542;2023-07-29T01:54:01;99812.00;;;19.20
64960;BMP180;51487;52.266;10.542;2023-07-29T01:56:26;99808.00;;;19.30
64960;BMP180;51487;52.266;10.542;2023-07-29T01:58:52;99819.00;;;19.30
64960;BMP180;51487;52.266;10.542;2023-07-29T02:01:17;99813.00;;;19.30
64960;BMP180;51487;52.266;10.542;2023-07-29T02:03:43;99813.00;;;19.20
64960;BMP180;51487;52.266;10.542;2023-07-29T02:06:08;99817.00;;;19.10
64960;BMP180;51487;52.266;10.542;2023-07-29T02:08:34;99820.00;;;19.10
64960;BMP180;51487;52.266;10.542;2023-07-29T02:11:00;99812.00;;;19.10
64960;BMP180;51487;52.266;10.542;2023-07-29T02:13:26;99809.00;;;19.00
64960;BMP180;51487;52.266;10.542;2023-07-29T02:15:52;99820.00;;;19.00
64960;BMP180;51487;52.266;10.542;2023-07-29T02:18:17;99819.00;;;18.90
64960;BMP180;51487;52.266;10.542;2023-07-29T02:20:43;99822.00;;;18.90
64960;BMP180;51487;52.266;10.542;2023-07-29T02:23:14;99827.00;;;18.80
64960;BMP180;51487;52.266;10.542;2023-07-29T02:25:42;99827.00;;;18.80
64960;BMP180;51487;52.266;10.542;2023-07-29T02:28:07;99829.00;;;18.90
64960;BMP180;51487;52.266;10.542;2023-07-29T02:30:33;99822.00;;;19.00
64960;BMP180;51487;52.266;10.542;2023-07-29T02:32:59;99832.00;;;19.00
64960;BMP180;51487;52.266;10.542;2023-07-29T02:35:26;99828.00;;;19.00
64960;BMP180;51487;52.266;10.542;2023-07-29T02:37:54;99825.00;;;19.00
64960;BMP180;51487;52.266;10.542;2023-07-29T02:40:19;99820.00;;;19.00
64960;BMP180;51487;52.266;10.542;2023-07-29T02:42:46;99823.00;;;19.00
64960;BMP180;51487;52.266;10.542;2023-07-29T02:45:11;99822.00;;;18.90
64960;BMP180;51487;52.266;10.542;2023-07-29T02:47:38;99824.00;;;18.80
64960;BMP180;51487;52.266;10.542;2023-07-29T02:50:03;99819.00;;;18.70
64960;BMP180;51487;52.266;10.542;2023-07-29T02:52:29;99829.00;;;18.80
64960;BMP180;51487;52.266;10.542;2023-07-29T02:54:55;99829.00;;;18.90
64960;BMP180;51487;52.266;10.542;2023-07-29T02:57:21;99827.00;;;18.90
64960;BMP180;51487;52.266;10.542;2023-07-29T02:59:46;99827.00;;;18.90
64960;BMP180;51487;52.266;10.542;2023-07-29T03:02:12;99812.00;;;18.90
64960;BMP180;51487;52.266;10.542;2023-07-29T03:04:37;99826.00;;;18.80
64960;BMP180;51487;52.266;10.542;2023-07-29T03:07:03;99821.00;;;18.90
64960;BMP180;51487;52.266;10.542;2023-07-29T03:09:29;99812.00;;;18.90
64960;BMP180;51487;52.266;10.542;2023-07-29T03:11:54;99811.00;;;19.10
64960;BMP180;51487;52.266;10.542;2023-07-29T03:14:20;99808.00;;;19.20
64960;BMP180;51487;52.266;10.542;2023-07-29T03:16:46;99805.00;;;19.00
64960;BMP180;51487;52.266;10.542;2023-07-29T03:19:12;99803.00;;;19.10
64960;BMP180;51487;52.266;10.542;2023-07-29T03:21:38;99806.00;;;19.10
64960;BMP180;51487;52.266;10.542;2023-07-29T03:24:03;99813.00;;;19.10
64960;BMP180;51487;52.266;10.542;2023-07-29T03:26:29;99805.00;;;19.20
64960;BMP180;51487;52.266;10.542;2023-07-29T03:28:54;99819.00;;;19.30
64960;BMP180;51487;52.266;10.542;2023-07-29T03:31:20;99807.00;;;19.40
64960;BMP180;51487;52.266;10.542;2023-07-29T03:33:45;99819.00;;;19.40
64960;BMP180;51487;52.266;10.542;2023-07-29T03:36:11;99811.00;;;19.40
64960;BMP180;51487;52.266;10.542;2023-07-29T03:38:37;99819.00;;;19.30
64960;BMP180;51487;52.266;10.542;2023-07-29T03:41:06;99812.00;;;19.30
64960;BMP180;51487;52.266;10.542;2023-07-29T03:43:33;99806.00;;;19.30
64960;BMP180;51487;52.266;10.542;2023-07-29T03:46:00;99819.00;;;19.20
64960;BMP180;51487;52.266;10.542;2023-07-29T03:48:25;99805.00;;;19.20
64960;BMP180;51487;52.266;10.542;2023-07-29T03:50:51;99799.00;;;19.30
64960;BMP180;51487;52.266;10.542;2023-07-29T03:53:16;99796.00;;;19.30
64960;BMP180;51487;52.266;10.542;2023-07-29T03:55:42;99794.00;;;19.20
64960;BMP180;51487;52.266;10.542;2023-07-29T03:58:09;99794.00;;;19.20
64960;BMP180;51487;52.266;10.542;2023-07-29T04:00:34;99793.00;;;19.20
64960;BMP180;51487;52.266;10.542;2023-07-29T04:03:00;99780.00;;;19.30
64960;BMP180;51487;52.266;10.542;2023-07-29T04:05:25;99783.00;;;19.30
64960;BMP180;51487;52.266;10.542;2023-07-29T04:07:51;99785.00;;;19.50
64960;BMP180;51487;52.266;10.542;2023-07-29T04:10:18;99789.00;;;19.50
64960;BMP180;51487;52.266;10.542;2023-07-29T04:12:43;99789.00;;;19.30
64960;BMP180;51487;52.266;10.542;2023-07-29T04:15:09;99793.00;;;19.30
64960;BMP180;51487;52.266;10.542;2023-07-29T04:17:35;99791.00;;;19.50
64960;BMP180;51487;52.266;10.542;2023-07-29T04:20:01;99792.00;;;19.60
64960;BMP180;51487;52.266;10.542;2023-07-29T04:22:27;99788.00;;;19.50
64960;BMP180;51487;52.266;10.542;2023-07-29T04:24:53;99786.00;;;19.50
64960;BMP180;51487;52.266;10.542;2023-07-29T04:27:19;99788.00;;;19.60
64960;BMP180;51487;52.266;10.542;2023-07-29T04:29:44;99786.00;;;19.60
64960;BMP180;51487;52.266;10.542;2023-07-29T04:32:10;99784.00;;;19.60
64960;BMP180;51487;52.266;10.542;2023-07-29T04:34:35;99783.00;;;19.60
64960;BMP180;51487;52.266;10.542;2023-07-29T04:37:01;99787.00;;;19.70
64960;BMP180;51487;52.266;10.542;2023-07-29T04:39:26;99788.00;;;19.60
64960;BMP180;51487;52.266;10.542;2023-07-29T04:41:52;99794.00;;;19.60
64960;BMP180;51487;52.266;10.542;2023-07-29T04:44:17;99783.00;;;19.70
64960;BMP180;51487;52.266;10.542;2023-07-29T04:46:43;99776.00;;;19.80
64960;BMP180;51487;52.266;10.542;2023-07-29T04:49:08;99767.00;;;19.90
64960;BMP180;51487;52.266;10.542;2023-07-29T04:51:34;99760.00;;;19.90
64960;BMP180;51487;52.266;10.542;2023-07-29T04:54:00;99758.00;;;19.80
64960;BMP180;51487;52.266;10.542;2023-07-29T04:56:26;99757.00;;;19.90
64960;BMP180;51487;52.266;10.542;2023-07-29T04:58:51;99770.00;;;19.80
64960;BMP180;51487;52.266;10.542;2023-07-29T05:01:18;99777.00;;;19.70
64960;BMP180;51487;52.266;10.542;2023-07-29T05:03:43;99772.00;;;19.80
64960;BMP180;51487;52.266;10.542;2023-07-29T05:06:09;99756.00;;;20.00
64960;BMP180;51487;52.266;10.542;2023-07-29T05:08:34;99759.00;;;20.20
64960;BMP180;51487;52.266;10.542;2023-07-29T05:11:00;99760.00;;;20.20
64960;BMP180;51487;52.266;10.542;2023-07-29T05:13:26;99760.00;;;20.30
64960;BMP180;51487;52.266;10.542;2023-07-29T05:15:51;99755.00;;;20.50
64960;BMP180;51487;52.266;10.542;2023-07-29T05:18:17;99765.00;;;20.40
64960;BMP180;51487;52.266;10.542;2023-07-29T05:20:43;99770.00;;;20.40
64960;BMP180;51487;52.266;10.542;2023-07-29T05:23:08;99759.00;;;20.20
64960;BMP180;51487;52.266;10.542;2023-07-29T05:25:34;99765.00;;;20.20
64960;BMP180;51487;52.266;10.542;2023-07-29T05:28:01;99761.00;;;20.20
64960;BMP180;51487;52.266;10.542;2023-07-29T05:30:27;99762.00;;;20.30
64960;BMP180;51487;52.266;10.542;2023-07-29T05:32:56;99765.00;;;20.30
64960;BMP180;51487;52.266;10.542;2023-07-29T05:35:22;99758.00;;;20.30
64960;BMP180;51487;52.266;10.542;2023-07-29T05:37:48;99760.00;;;20.40
64960;BMP180;51487;52.266;10.542;2023-07-29T05:40:14;99758.00;;;20.40
64960;BMP180;51487;52.266;10.542;2023-07-29T05:42:39;99747.00;;;20.50
64960;BMP180;51487;52.266;10.542;2023-07-29T05:45:06;99741.00;;;20.60
64960;BMP180;51487;52.266;10.542;2023-07-29T05:47:32;99758.00;;;20.70
64960;BMP180;51487;52.266;10.542;2023-07-29T05:49:57;99760.00;;;20.80
64960;BMP180;51487;52.266;10.542;2023-07-29T05:52:23;99752.00;;;20.70
64960;BMP180;51487;52.266;10.542;2023-07-29T05:54:51;99757.00;;;20.60
64960;BMP180;51487;52.266;10.542;2023-07-29T05:57:17;99755.00;;;20.60
64960;BMP180;51487;52.266;10.542;2023-07-29T05:59:43;99759.00;;;20.60
64960;BMP180;51487;52.266;10.542;2023-07-29T06:02:09;99753.00;;;20.50
64960;BMP180;51487;52.266;10.542;2023-07-29T06:04:34;99759.00;;;20.40
64960;BMP180;51487;52.266;10.542;2023-07-29T06:07:00;99754.00;;;20.30
64960;BMP180;51487;52.266;10.542;2023-07-29T06:09:25;99764.00;;;20.30
64960;BMP180;51487;52.266;10.542;2023-07-29T06:11:51;99768.00;;;20.20
64960;BMP180;51487;52.266;10.542;2023-07-29T06:14:17;99765.00;;;20.10
64960;BMP180;51487;52.266;10.542;2023-07-29T06:16:42;99766.00;;;20.00
64960;BMP180;51487;52.266;10.542;2023-07-29T06:19:08;99769.00;;;19.90
64960;BMP180;51487;52.266;10.542;2023-07-29T06:21:34;99766.00;;;19.90
64960;BMP180;51487;52.266;10.542;2023-07-29T06:24:01;99773.00;;;19.80
64960;BMP180;51487;52.266;10.542;2023-07-29T06:26:27;99769.00;;;19.80
64960;BMP180;51487;52.266;10.542;2023-07-29T06:28:53;99767.00;;;19.80
64960;BMP180;51487;52.266;10.542;2023-07-29T06:31:18;99772.00;;;19.70
64960;BMP180;51487;52.266;10.542;2023-07-29T06:33:44;99771.00;;;19.70
64960;BMP180;51487;52.266;10.542;2023-07-29T06:36:10;99772.00;;;19.50
64960;BMP180;51487;52.266;10.542;2023-07-29T06:38:36;99783.00;;;19.50
64960;BMP180;51487;52.266;10.542;2023-07-29T06:41:03;99788.00;;;19.50
64960;BMP180;51487;52.266;10.542;2023-07-29T06:43:29;99783.00;;;19.40
64960;BMP180;51487;52.266;10.542;2023-07-29T06:45:55;99785.00;;;19.40
64960;BMP180;51487;52.266;10.542;2023-07-29T06:48:21;99768.00;;;19.30
64960;BMP180;51487;52.266;10.542;2023-07-29T06:50:46;99769.00;;;19.30
64960;BMP180;51487;52.266;10.542;2023-07-29T06:53:12;99771.00;;;19.20
64960;BMP180;51487;52.266;10.542;2023-07-29T06:55:37;99772.00;;;19.20
64960;BMP180;51487;52.266;10.542;2023-07-29T06:58:03;99775.00;;;19.20
64960;BMP180;51487;52.266;10.542;2023-07-29T07:00:28;99768.00;;;19.10
64960;BMP180;51487;52.266;10.542;2023-07-29T07:02:54;99769.00;;;19.10
64960;BMP180;51487;52.266;10.542;2023-07-29T07:05:19;99758.00;;;19.30
64960;BMP180;51487;52.266;10.542;2023-07-29T07:07:45;99754.00;;;19.20
64960;BMP180;51487;52.266;10.542;2023-07-29T07:10:10;99773.00;;;19.10
64960;BMP180;51487;52.266;10.542;2023-07-29T07:12:36;99778.00;;;19.10
64960;BMP180;51487;52.266;10.542;2023-07-29T07:15:02;99783.00;;;19.10
64960;BMP180;51487;52.266;10.542;2023-07-29T07:17:28;99783.00;;;19.10
64960;BMP180;51487;52.266;10.542;2023-07-29T07:19:53;99786.00;;;19.20
64960;BMP180;51487;52.266;10.542;2023-07-29T07:22:19;99790.00;;;19.20
64960;BMP180;51487;52.266;10.542;2023-07-29T07:24:44;99782.00;;;19.10
64960;BMP180;51487;52.266;10.542;2023-07-29T07:27:10;99774.00;;;19.30
64960;BMP180;51487;52.266;10.542;2023-07-29T07:29:36;99778.00;;;19.30
64960;BMP180;51487;52.266;10.542;2023-07-29T07:32:02;99783.00;;;19.20
64960;BMP180;51487;52.266;10.542;2023-07-29T07:34:27;99775.00;;;19.30
64960;BMP180;51487;52.266;10.542;2023-07-29T07:36:53;99782.00;;;19.40
64960;BMP180;51487;52.266;10.542;2023-07-29T07:39:18;99767.00;;;19.40
64960;BMP180;51487;52.266;10.542;2023-07-29T07:41:44;99771.00;;;19.40
64960;BMP180;51487;52.266;10.542;2023-07-29T07:44:10;99770.00;;;19.40
64960;BMP180;51487;52.266;10.542;2023-07-29T07:46:37;99769.00;;;19.30
64960;BMP180;51487;52.266;10.542;2023-07-29T07:49:03;99764.00;;;19.40
64960;BMP180;51487;52.266;10.542;2023-07-29T07:51:28;99761.00;;;19.40
64960;BMP180;51487;52.266;10.542;2023-07-29T07:53:55;99765.00;;;19.40
64960;BMP180;51487;52.266;10.542;2023-07-29T07:56:21;99759.00;;;19.50
64960;BMP180;51487;52.266;10.542;2023-07-29T07:58:46;99763.00;;;19.50
64960;BMP180;51487;52.266;10.542;2023-07-29T08:01:12;99756.00;;;19.50
64960;BMP180;51487;52.266;10.542;2023-07-29T08:03:38;99751.00;;;19.60
64960;BMP180;51487;52.266;10.542;2023-07-29T08:06:04;99749.00;;;19.80
64960;BMP180;51487;52.266;10.542;2023-07-29T08:08:29;99752.00;;;19.90
64960;BMP180;51487;52.266;10.542;2023-07-29T08:10:57;99743.00;;;20.00
64960;BMP180;51487;52.266;10.542;2023-07-29T08:13:23;99744.00;;;20.10
64960;BMP180;51487;52.266;10.542;2023-07-29T08:15:52;99738.00;;;20.30
64960;BMP180;51487;52.266;10.542;2023-07-29T08:18:18;99730.00;;;20.50
64960;BMP180;51487;52.266;10.542;2023-07-29T08:20:55;99740.00;;;20.60
64960;BMP180;51487;52.266;10.542;2023-07-29T08:23:25;99736.00;;;20.90
64960;BMP180;51487;52.266;10.542;2023-07-29T08:25:53;99724.00;;;20.80
64960;BMP180;51487;52.266;10.542;2023-07-29T08:28:22;99721.00;;;20.90
64960;BMP180;51487;52.266;10.542;2023-07-29T08:30:48;99720.00;;;20.90
64960;BMP180;51487;52.266;10.542;2023-07-29T08:33:14;99718.00;;;20.90
64960;BMP180;51487;52.266;10.542;2023-07-29T08:35:40;99717.00;;;20.90
64960;BMP180;51487;52.266;10.542;2023-07-29T08:38:05;99718.00;;;21.10
64960;BMP180;51487;52.266;10.542;2023-07-29T08:40:31;99724.00;;;21.10
64960;BMP180;51487;52.266;10.542;2023-07-29T08:43:04;99715.00;;;21.20
64960;BMP180;51487;52.266;10.542;2023-07-29T08:45:35;99727.00;;;21.20
64960;BMP180;51487;52.266;10.542;2023-07-29T08:48:07;99720.00;;;21.10
64960;BMP180;51487;52.266;10.542;2023-07-29T08:50:36;99729.00;;;21.10
64960;BMP180;51487;52.266;10.542;2023-07-29T08:53:06;99733.00;;;21.00
64960;BMP180;51487;52.266;10.542;2023-07-29T08:55:33;99731.00;;;20.90
64960;BMP180;51487;52.266;10.542;2023-07-29T08:57:59;99732.00;;;20.80
64960;BMP180;51487;52.266;10.542;2023-07-29T09:00:27;99723.00;;;20.80
64960;BMP180;51487;52.266;10.542;2023-07-29T09:02:53;99722.00;;;20.80
64960;BMP180;51487;52.266;10.542;2023-07-29T09:05:21;99725.00;;;20.90
64960;BMP180;51487;52.266;10.542;2023-07-29T09:07:48;99734.00;;;20.90
64960;BMP180;51487;52.266;10.542;2023-07-29T09:10:16;99719.00;;;20.90
64960;BMP180;51487;52.266;10.542;2023-07-29T09:12:46;99715.00;;;20.90
64960;BMP180;51487;52.266;10.542;2023-07-29T09:15:12;99731.00;;;21.10
64960;BMP180;51487;52.266;10.542;2023-07-29T09:17:40;99746.00;;;21.10
64960;BMP180;51487;52.266;10.542;2023-07-29T09:20:09;99741.00;;;21.20
64960;BMP180;51487;52.266;10.542;2023-07-29T09:22:35;99744.00;;;21.20
64960;BMP180;51487;52.266;10.542;2023-07-29T09:25:00;99749.00;;;21.00
64960;BMP180;51487;52.266;10.542;2023-07-29T09:27:27;99754.00;;;21.00
64960;BMP180;51487;52.266;10.542;2023-07-29T09:29:57;99741.00;;;20.90
64960;BMP180;51487;52.266;10.542;2023-07-29T09:32:24;99731.00;;;21.00
64960;BMP180;51487;52.266;10.542;2023-07-29T09:34:50;99735.00;;;21.10
64960;BMP180;51487;52.266;10.542;2023-07-29T09:37:17;99721.00;;;21.20
64960;BMP180;51487;52.266;10.542;2023-07-29T09:39:47;99724.00;;;21.40
64960;BMP180;51487;52.266;10.542;2023-07-29T09:42:21;99711.00;;;21.60
64960;BMP180;51487;52.266;10.542;2023-07-29T09:44:49;99696.00;;;21.80
64960;BMP180;51487;52.266;10.542;2023-07-29T09:47:23;99692.00;;;21.90
64960;BMP180;51487;52.266;10.542;2023-07-29T09:49:51;99700.00;;;21.90
64960;BMP180;51487;52.266;10.542;2023-07-29T09:52:22;99713.00;;;22.00
64960;BMP180;51487;52.266;10.542;2023-07-29T09:54:48;99716.00;;;22.10
64960;BMP180;51487;52.266;10.542;2023-07-29T09:57:17;99728.00;;;21.90
64960;BMP180;51487;52.266;10.542;2023-07-29T09:59:54;99722.00;;;21.90
64960;BMP180;51487;52.266;10.542;2023-07-29T10:02:20;99714.00;;;21.90
64960;BMP180;51487;52.266;10.542;2023-07-29T10:04:46;99704.00;;;21.90
64960;BMP180;51487;52.266;10.542;2023-07-29T10:07:14;99704.00;;;21.80
64960;BMP180;51487;52.266;10.542;2023-07-29T10:09:41;99713.00;;;21.90
64960;BMP180;51487;52.266;10.542;2023-07-29T10:12:09;99717.00;;;21.90
64960;BMP180;51487;52.266;10.542;2023-07-29T10:14:38;99715.00;;;22.10
64960;BMP180;51487;52.266;10.542;2023-07-29T10:17:05;99722.00;;;22.30
64960;BMP180;51487;52.266;10.542;2023-07-29T10:19:32;99723.00;;;22.40
64960;BMP180;51487;52.266;10.542;2023-07-29T10:22:03;99726.00;;;22.30
64960;BMP180;51487;52.266;10.542;2023-07-29T10:24:33;99718.00;;;22.40
64960;BMP180;51487;52.266;10.542;2023-07-29T10:27:00;99730.00;;;22.30
64960;BMP180;51487;52.266;10.542;2023-07-29T10:29:38;99716.00;;;22.40
64960;BMP180;51487;52.266;10.542;2023-07-29T10:32:08;99716.00;;;22.60
64960;BMP180;51487;52.266;10.542;2023-07-29T10:34:37;99711.00;;;22.50
64960;BMP180;51487;52.266;10.542;2023-07-29T10:37:07;99720.00;;;22.50
64960;BMP180;51487;52.266;10.542;2023-07-29T10:39:40;99725.00;;;22.50
64960;BMP180;51487;52.266;10.542;2023-07-29T10:42:16;99715.00;;;22.40
64960;BMP180;51487;52.266;10.542;2023-07-29T10:44:47;99716.00;;;22.40
64960;BMP180;51487;52.266;10.542;2023-07-29T10:47:22;99706.00;;;22.50
64960;BMP180;51487;52.266;10.542;2023-07-29T10:49:57;99705.00;;;22.50
64960;BMP180;51487;52.266;10.542;2023-07-29T10:54:59;99697.00;;;22.70
64960;BMP180;51487;52.266;10.542;2023-07-29T10:57:38;99697.00;;;22.70
64960;BMP180;51487;52.266;10.542;2023-07-29T11:00:07;99696.00;;;22.70
64960;BMP180;51487;52.266;10.542;2023-07-29T11:02:37;99700.00;;;22.70
64960;BMP180;51487;52.266;10.542;2023-07-29T11:05:08;99696.00;;;22.60
64960;BMP180;51487;52.266;10.542;2023-07-29T11:07:46;99688.00;;;22.60
64960;BMP180;51487;52.266;10.542;2023-07-29T11:10:14;99687.00;;;22.50
64960;BMP180;51487;52.266;10.542;2023-07-29T11:12:51;99678.00;;;22.40
64960;BMP180;51487;52.266;10.542;2023-07-29T11:20:28;99674.00;;;22.50
64960;BMP180;51487;52.266;10.542;2023-07-29T11:22:56;99671.00;;;22.20
64960;BMP180;51487;52.266;10.542;2023-07-29T11:25:23;99693.00;;;22.20
64960;BMP180;51487;52.266;10.542;2023-07-29T11:27:55;99683.00;;;22.10
64960;BMP180;51487;52.266;10.542;2023-07-29T11:30:22;99688.00;;;22.10
64960;BMP180;51487;52.266;10.542;2023-07-29T11:32:48;99689.00;;;22.00
64960;BMP180;51487;52.266;10.542;2023-07-29T11:35:17;99697.00;;;21.90
64960;BMP180;51487;52.266;10.542;2023-07-29T11:37:45;99686.00;;;21.80
64960;BMP180;51487;52.266;10.542;2023-07-29T11:40:16;99691.00;;;21.80
64960;BMP180;51487;52.266;10.542;2023-07-29T11:42:44;99697.00;;;21.90
64960;BMP180;51487;52.266;10.542;2023-07-29T11:45:11;99697.00;;;21.70
64960;BMP180;51487;52.266;10.542;2023-07-29T11:47:37;99700.00;;;21.50
64960;BMP180;51487;52.266;10.542;2023-07-29T11:50:08;99706.00;;;21.50
64960;BMP180;51487;52.266;10.542;2023-07-29T11:52:39;99689.00;;;21.50
64960;BMP180;51487;52.266;10.542;2023-07-29T11:55:06;99682.00;;;21.40
64960;BMP180;51487;52.266;10.542;2023-07-29T11:57:35;99679.00;;;21.40
64960;BMP180;51487;52.266;10.542;2023-07-29T12:00:04;99674.00;;;21.40
64960;BMP180;51487;52.266;10.542;2023-07-29T12:02:33;99672.00;;;21.40
64960;BMP180;51487;52.266;10.542;2023-07-29T12:05:03;99679.00;;;21.50
64960;BMP180;51487;52.266;10.542;2023-07-29T12:07:30;99678.00;;;21.60
64960;BMP180;51487;52.266;10.542;2023-07-29T12:09:57;99665.00;;;21.80
64960;BMP180;51487;52.266;10.542;2023-07-29T12:12:23;99673.00;;;21.90
64960;BMP180;51487;52.266;10.542;2023-07-29T12:14:48;99681.00;;;22.00
64960;BMP180;51487;52.266;10.542;2023-07-29T12:17:14;99679.00;;;21.90
64960;BMP180;51487;52.266;10.542;2023-07-29T12:19:41;99679.00;;;22.00
64960;BMP180;51487;52.266;10.542;2023-07-29T12:22:09;99676.00;;;22.10
64960;BMP180;51487;52.266;10.542;2023-07-29T12:24:39;99685.00;;;22.30
64960;BMP180;51487;52.266;10.542;2023-07-29T12:27:13;99679.00;;;22.50
64960;BMP180;51487;52.266;10.542;2023-07-29T12:29:42;99676.00;;;22.80
64960;BMP180;51487;52.266;10.542;2023-07-29T12:32:09;99667.00;;;22.80
64960;BMP180;51487;52.266;10.542;2023-07-29T12:34:37;99670.00;;;23.00
64960;BMP180;51487;52.266;10.542;2023-07-29T12:37:05;99666.00;;;23.00
64960;BMP180;51487;52.266;10.542;2023-07-29T12:39:33;99665.00;;;23.00
64960;BMP180;51487;52.266;10.542;2023-07-29T12:42:01;99672.00;;;22.90
64960;BMP180;51487;52.266;10.542;2023-07-29T12:44:37;99677.00;;;23.00
64960;BMP180;51487;52.266;10.542;2023-07-29T12:47:06;99671.00;;;22.80
64960;BMP180;51487;52.266;10.542;2023-07-29T12:49:34;99670.00;;;23.00
64960;BMP180;51487;52.266;10.542;2023-07-29T12:52:00;99669.00;;;23.10
64960;BMP180;51487;52.266;10.542;2023-07-29T12:54:27;99670.00;;;23.10
64960;BMP180;51487;52.266;10.542;2023-07-29T12:56:52;99656.00;;;23.30
64960;BMP180;51487;52.266;10.542;2023-07-29T12:59:18;99655.00;;;23.40
64960;BMP180;51487;52.266;10.542;2023-07-29T13:01:44;99674.00;;;23.40
64960;BMP180;51487;52.266;10.542;2023-07-29T13:04:10;99670.00;;;23.40
64960;BMP180;51487;52.266;10.542;2023-07-29T13:06:36;99673.00;;;23.50
64960;BMP180;51487;52.266;10.542;2023-07-29T13:09:02;99673.00;;;23.40
64960;BMP180;51487;52.266;10.542;2023-07-29T13:11:28;99682.00;;;23.50
64960;BMP180;51487;52.266;10.542;2023-07-29T13:13:54;99689.00;;;23.50
64960;BMP180;51487;52.266;10.542;2023-07-29T13:16:19;99686.00;;;23.50
64960;BMP180;51487;52.266;10.542;2023-07-29T13:18:45;99679.00;;;23.60
64960;BMP180;51487;52.266;10.542;2023-07-29T13:21:10;99676.00;;;23.60
64960;BMP180;51487;52.266;10.542;2023-07-29T13:23:36;99685.00;;;23.50
64960;BMP180;51487;52.266;10.542;2023-07-29T13:26:02;99680.00;;;23.50
64960;BMP180;51487;52.266;10.542;2023-07-29T13:28:27;99685.00;;;23.60
64960;BMP180;51487;52.266;10.542;2023-07-29T13:30:53;99680.00;;;23.60
64960;BMP180;51487;52.266;10.542;2023-07-29T13:33:19;99684.00;;;23.90
64960;BMP180;51487;52.266;10.542;2023-07-29T13:35:44;99679.00;;;24.00
64960;BMP180;51487;52.266;10.542;2023-07-29T13:38:10;99688.00;;;24.10
64960;BMP180;51487;52.266;10.542;2023-07-29T13:40:36;99682.00;;;24.10
64960;BMP180;51487;52.266;10.542;2023-07-29T13:43:02;99693.00;;;24.00
64960;BMP180;51487;52.266;10.542;2023-07-29T13:45:28;99690.00;;;23.80
64960;BMP180;51487;52.266;10.542;2023-07-29T13:47:54;99675.00;;;23.80
64960;BMP180;51487;52.266;10.542;2023-07-29T13:50:19;99685.00;;;24.00
64960;BMP180;51487;52.266;10.542;2023-07-29T13:52:45;99688.00;;;24.00
64960;BMP180;51487;52.266;10.542;2023-07-29T13:55:11;99695.00;;;23.90
64960;BMP180;51487;52.266;10.542;2023-07-29T13:57:37;99696.00;;;23.70
64960;BMP180;51487;52.266;10.542;2023-07-29T14:00:06;99705.00;;;23.70
64960;BMP180;51487;52.266;10.542;2023-07-29T14:02:33;99694.00;;;23.80
64960;BMP180;51487;52.266;10.542;2023-07-29T14:04:59;99699.00;;;23.70
64960;BMP180;51487;52.266;10.542;2023-07-29T14:07:24;99703.00;;;23.80
64960;BMP180;51487;52.266;10.542;2023-07-29T14:09:50;99693.00;;;24.00